All Spectrum Aviation - Van Nuys Airport - KVNY

HOME

Van Nuys Tower Recordings

Condor Squadron KVNY Webcam

Visit our Electronics Store

Condor Squadron Webcam - Van Nuys Airport - KVNY
Picture taken: Wed, 27 Jul 2016 17:55:28 -0700
YouTube Channel!    Latest Timelapse Movie    Full Size Image    Regular Size Image    

2016/07/27 23:51 KVNY 272351Z 13006KT 10SM FU CLR 36/09 A2987 RMK AO2 SLP102 T03560094 10378 20328 56009

HOME

Van Nuys Tower Recordings

Condor Squadron KVNY Webcam

Visit our Electronics Store